sensor_id;sensor_type;location;lat;lon;timestamp;temperature;humidity
25332;DHT22;13284;52.748;13.452;2022-11-20T00:00:50;1.00;99.90
25332;DHT22;13284;52.748;13.452;2022-11-20T00:03:15;0.90;99.90
25332;DHT22;13284;52.748;13.452;2022-11-20T00:05:41;0.90;99.90
25332;DHT22;13284;52.748;13.452;2022-11-20T00:08:06;0.90;99.90
25332;DHT22;13284;52.748;13.452;2022-11-20T00:10:32;1.00;99.90
25332;DHT22;13284;52.748;13.452;2022-11-20T00:12:58;0.90;99.90
25332;DHT22;13284;52.748;13.452;2022-11-20T00:15:24;0.90;99.90
25332;DHT22;13284;52.748;13.452;2022-11-20T00:17:49;0.90;99.90
25332;DHT22;13284;52.748;13.452;2022-11-20T00:20:15;0.90;99.90
25332;DHT22;13284;52.748;13.452;2022-11-20T00:22:41;0.90;99.90
25332;DHT22;13284;52.748;13.452;2022-11-20T00:25:06;0.90;99.90
25332;DHT22;13284;52.748;13.452;2022-11-20T00:27:32;0.90;99.90
25332;DHT22;13284;52.748;13.452;2022-11-20T00:29:58;0.90;99.90
25332;DHT22;13284;52.748;13.452;2022-11-20T00:32:23;0.90;99.90
25332;DHT22;13284;52.748;13.452;2022-11-20T00:34:49;0.90;99.90
25332;DHT22;13284;52.748;13.452;2022-11-20T00:37:14;0.90;99.90
25332;DHT22;13284;52.748;13.452;2022-11-20T00:39:40;0.80;99.90
25332;DHT22;13284;52.748;13.452;2022-11-20T00:42:06;0.80;99.90
25332;DHT22;13284;52.748;13.452;2022-11-20T00:44:31;0.80;99.90
25332;DHT22;13284;52.748;13.452;2022-11-20T00:46:57;0.90;99.90
25332;DHT22;13284;52.748;13.452;2022-11-20T00:49:22;0.90;99.90
25332;DHT22;13284;52.748;13.452;2022-11-20T00:51:48;0.80;99.90
25332;DHT22;13284;52.748;13.452;2022-11-20T00:54:13;0.80;99.90
25332;DHT22;13284;52.748;13.452;2022-11-20T00:56:38;0.80;99.90
25332;DHT22;13284;52.748;13.452;2022-11-20T00:59:05;0.80;99.90
25332;DHT22;13284;52.748;13.452;2022-11-20T01:01:30;0.80;99.90
25332;DHT22;13284;52.748;13.452;2022-11-20T01:03:59;0.80;99.90
25332;DHT22;13284;52.748;13.452;2022-11-20T01:06:30;0.80;99.90
25332;DHT22;13284;52.748;13.452;2022-11-20T01:08:59;0.80;99.90
25332;DHT22;13284;52.748;13.452;2022-11-20T01:11:30;0.80;99.90
25332;DHT22;13284;52.748;13.452;2022-11-20T01:13:57;0.80;99.90
25332;DHT22;13284;52.748;13.452;2022-11-20T01:16:34;0.80;99.90
25332;DHT22;13284;52.748;13.452;2022-11-20T01:19:02;0.80;99.90
25332;DHT22;13284;52.748;13.452;2022-11-20T01:21:29;0.70;99.90
25332;DHT22;13284;52.748;13.452;2022-11-20T01:23:56;0.70;99.90
25332;DHT22;13284;52.748;13.452;2022-11-20T01:26:25;0.70;99.90
25332;DHT22;13284;52.748;13.452;2022-11-20T01:28:51;0.70;99.90
25332;DHT22;13284;52.748;13.452;2022-11-20T01:31:20;0.70;99.90
25332;DHT22;13284;52.748;13.452;2022-11-20T01:33:48;0.70;99.90
25332;DHT22;13284;52.748;13.452;2022-11-20T01:36:15;0.70;99.90
25332;DHT22;13284;52.748;13.452;2022-11-20T01:38:41;0.60;99.90
25332;DHT22;13284;52.748;13.452;2022-11-20T01:41:08;0.60;99.90
25332;DHT22;13284;52.748;13.452;2022-11-20T01:43:34;0.60;99.90
25332;DHT22;13284;52.748;13.452;2022-11-20T01:46:08;0.60;99.90
25332;DHT22;13284;52.748;13.452;2022-11-20T01:48:44;0.70;99.90
25332;DHT22;13284;52.748;13.452;2022-11-20T01:51:23;0.60;99.90
25332;DHT22;13284;52.748;13.452;2022-11-20T01:53:53;0.70;99.90
25332;DHT22;13284;52.748;13.452;2022-11-20T01:56:19;0.60;99.90
25332;DHT22;13284;52.748;13.452;2022-11-20T01:58:54;0.60;99.90
25332;DHT22;13284;52.748;13.452;2022-11-20T02:01:22;0.60;99.90
25332;DHT22;13284;52.748;13.452;2022-11-20T02:03:48;0.60;99.90
25332;DHT22;13284;52.748;13.452;2022-11-20T02:06:16;0.70;99.90
25332;DHT22;13284;52.748;13.452;2022-11-20T02:08:44;0.70;99.90
25332;DHT22;13284;52.748;13.452;2022-11-20T02:11:10;0.70;99.90
25332;DHT22;13284;52.748;13.452;2022-11-20T02:13:38;0.60;99.90
25332;DHT22;13284;52.748;13.452;2022-11-20T02:16:24;0.60;99.90
25332;DHT22;13284;52.748;13.452;2022-11-20T02:18:51;0.70;99.90
25332;DHT22;13284;52.748;13.452;2022-11-20T02:21:23;0.60;99.90
25332;DHT22;13284;52.748;13.452;2022-11-20T02:26:22;0.70;99.90
25332;DHT22;13284;52.748;13.452;2022-11-20T02:28:48;0.70;99.90
25332;DHT22;13284;52.748;13.452;2022-11-20T02:31:14;0.70;99.90
25332;DHT22;13284;52.748;13.452;2022-11-20T02:33:40;0.70;99.90
25332;DHT22;13284;52.748;13.452;2022-11-20T02:36:09;0.80;99.90
25332;DHT22;13284;52.748;13.452;2022-11-20T02:38:36;0.70;99.90
25332;DHT22;13284;52.748;13.452;2022-11-20T02:41:02;0.70;99.90
25332;DHT22;13284;52.748;13.452;2022-11-20T02:43:27;0.80;99.90
25332;DHT22;13284;52.748;13.452;2022-11-20T02:45:53;0.70;99.90
25332;DHT22;13284;52.748;13.452;2022-11-20T02:48:18;0.80;99.90
25332;DHT22;13284;52.748;13.452;2022-11-20T02:50:44;0.80;99.90
25332;DHT22;13284;52.748;13.452;2022-11-20T02:53:10;0.80;99.90
25332;DHT22;13284;52.748;13.452;2022-11-20T02:55:35;0.80;99.90
25332;DHT22;13284;52.748;13.452;2022-11-20T02:58:01;0.80;99.90
25332;DHT22;13284;52.748;13.452;2022-11-20T03:00:27;0.80;99.90
25332;DHT22;13284;52.748;13.452;2022-11-20T03:02:52;0.70;99.90
25332;DHT22;13284;52.748;13.452;2022-11-20T03:05:18;0.70;99.90
25332;DHT22;13284;52.748;13.452;2022-11-20T03:07:44;0.70;99.90
25332;DHT22;13284;52.748;13.452;2022-11-20T03:10:09;0.70;99.90
25332;DHT22;13284;52.748;13.452;2022-11-20T03:12:35;0.70;99.90
25332;DHT22;13284;52.748;13.452;2022-11-20T03:15:00;0.70;99.90
25332;DHT22;13284;52.748;13.452;2022-11-20T03:17:26;0.60;99.90
25332;DHT22;13284;52.748;13.452;2022-11-20T03:19:51;0.60;99.90
25332;DHT22;13284;52.748;13.452;2022-11-20T03:22:17;0.60;99.90
25332;DHT22;13284;52.748;13.452;2022-11-20T03:24:42;0.60;99.90
25332;DHT22;13284;52.748;13.452;2022-11-20T03:27:08;0.60;99.90
25332;DHT22;13284;52.748;13.452;2022-11-20T03:29:35;0.50;99.90
25332;DHT22;13284;52.748;13.452;2022-11-20T03:32:00;0.50;99.90
25332;DHT22;13284;52.748;13.452;2022-11-20T03:34:26;0.50;99.90
25332;DHT22;13284;52.748;13.452;2022-11-20T03:36:51;0.60;99.90
25332;DHT22;13284;52.748;13.452;2022-11-20T03:39:17;0.60;99.90
25332;DHT22;13284;52.748;13.452;2022-11-20T03:41:42;0.60;99.90
25332;DHT22;13284;52.748;13.452;2022-11-20T03:44:10;0.60;99.90
25332;DHT22;13284;52.748;13.452;2022-11-20T03:46:36;0.60;99.90
25332;DHT22;13284;52.748;13.452;2022-11-20T03:49:03;0.60;99.90
25332;DHT22;13284;52.748;13.452;2022-11-20T03:51:30;0.60;99.90
25332;DHT22;13284;52.748;13.452;2022-11-20T03:54:00;0.70;99.90
25332;DHT22;13284;52.748;13.452;2022-11-20T03:56:31;0.70;99.90
25332;DHT22;13284;52.748;13.452;2022-11-20T03:58:57;0.70;99.90
25332;DHT22;13284;52.748;13.452;2022-11-20T04:01:26;0.60;99.90
25332;DHT22;13284;52.748;13.452;2022-11-20T04:03:54;0.70;99.90
25332;DHT22;13284;52.748;13.452;2022-11-20T04:06:28;0.70;99.90
25332;DHT22;13284;52.748;13.452;2022-11-20T04:08:54;0.60;99.90
25332;DHT22;13284;52.748;13.452;2022-11-20T04:11:23;0.60;99.90
25332;DHT22;13284;52.748;13.452;2022-11-20T04:13:51;0.60;99.90
25332;DHT22;13284;52.748;13.452;2022-11-20T04:16:17;0.70;99.90
25332;DHT22;13284;52.748;13.452;2022-11-20T04:18:43;0.60;99.90
25332;DHT22;13284;52.748;13.452;2022-11-20T04:21:09;0.60;99.90
25332;DHT22;13284;52.748;13.452;2022-11-20T04:23:34;0.60;99.90
25332;DHT22;13284;52.748;13.452;2022-11-20T04:26:09;0.60;99.90
25332;DHT22;13284;52.748;13.452;2022-11-20T04:28:35;0.60;99.90
25332;DHT22;13284;52.748;13.452;2022-11-20T04:31:06;0.60;99.90
25332;DHT22;13284;52.748;13.452;2022-11-20T04:33:32;0.60;99.90
25332;DHT22;13284;52.748;13.452;2022-11-20T04:36:06;0.60;99.90
25332;DHT22;13284;52.748;13.452;2022-11-20T04:38:33;0.60;99.90
25332;DHT22;13284;52.748;13.452;2022-11-20T04:41:00;0.60;99.90
25332;DHT22;13284;52.748;13.452;2022-11-20T04:43:26;0.60;99.90
25332;DHT22;13284;52.748;13.452;2022-11-20T04:45:53;0.60;99.90
25332;DHT22;13284;52.748;13.452;2022-11-20T04:48:18;0.60;99.90
25332;DHT22;13284;52.748;13.452;2022-11-20T04:50:44;0.70;99.90
25332;DHT22;13284;52.748;13.452;2022-11-20T04:53:09;0.60;99.90
25332;DHT22;13284;52.748;13.452;2022-11-20T04:55:35;0.70;99.90
25332;DHT22;13284;52.748;13.452;2022-11-20T04:58:00;0.70;99.90
25332;DHT22;13284;52.748;13.452;2022-11-20T05:00:26;0.60;99.90
25332;DHT22;13284;52.748;13.452;2022-11-20T05:02:51;0.70;99.90
25332;DHT22;13284;52.748;13.452;2022-11-20T05:05:17;0.60;99.90
25332;DHT22;13284;52.748;13.452;2022-11-20T05:07:43;0.60;99.90
25332;DHT22;13284;52.748;13.452;2022-11-20T05:10:08;0.70;99.90
25332;DHT22;13284;52.748;13.452;2022-11-20T05:12:34;0.70;99.90
25332;DHT22;13284;52.748;13.452;2022-11-20T05:14:59;0.60;99.90
25332;DHT22;13284;52.748;13.452;2022-11-20T05:17:25;0.60;99.90
25332;DHT22;13284;52.748;13.452;2022-11-20T05:19:50;0.60;99.90
25332;DHT22;13284;52.748;13.452;2022-11-20T05:22:16;0.60;99.90
25332;DHT22;13284;52.748;13.452;2022-11-20T05:24:41;0.50;99.90
25332;DHT22;13284;52.748;13.452;2022-11-20T05:27:07;0.60;99.90
25332;DHT22;13284;52.748;13.452;2022-11-20T05:29:32;0.60;99.90
25332;DHT22;13284;52.748;13.452;2022-11-20T05:31:58;0.60;99.90
25332;DHT22;13284;52.748;13.452;2022-11-20T05:34:23;0.60;99.90
25332;DHT22;13284;52.748;13.452;2022-11-20T05:36:49;0.70;99.90
25332;DHT22;13284;52.748;13.452;2022-11-20T05:39:14;0.60;99.90
25332;DHT22;13284;52.748;13.452;2022-11-20T05:41:40;0.60;99.90
25332;DHT22;13284;52.748;13.452;2022-11-20T05:44:05;0.60;99.90
25332;DHT22;13284;52.748;13.452;2022-11-20T05:46:31;0.60;99.90
25332;DHT22;13284;52.748;13.452;2022-11-20T05:48:57;0.50;99.90
25332;DHT22;13284;52.748;13.452;2022-11-20T05:51:24;0.50;99.90
25332;DHT22;13284;52.748;13.452;2022-11-20T05:53:50;0.50;99.90
25332;DHT22;13284;52.748;13.452;2022-11-20T05:56:18;0.50;99.90
25332;DHT22;13284;52.748;13.452;2022-11-20T05:58:44;0.40;99.90
25332;DHT22;13284;52.748;13.452;2022-11-20T06:01:16;0.40;99.90
25332;DHT22;13284;52.748;13.452;2022-11-20T06:03:43;0.40;99.90
25332;DHT22;13284;52.748;13.452;2022-11-20T06:06:11;0.40;99.90
25332;DHT22;13284;52.748;13.452;2022-11-20T06:08:37;0.40;99.90
25332;DHT22;13284;52.748;13.452;2022-11-20T06:11:04;0.40;99.90
25332;DHT22;13284;52.748;13.452;2022-11-20T06:13:30;0.40;99.90
25332;DHT22;13284;52.748;13.452;2022-11-20T06:15:56;0.40;99.90
25332;DHT22;13284;52.748;13.452;2022-11-20T06:18:21;0.40;99.90
25332;DHT22;13284;52.748;13.452;2022-11-20T06:20:47;0.40;99.90
25332;DHT22;13284;52.748;13.452;2022-11-20T06:23:13;0.50;99.90
25332;DHT22;13284;52.748;13.452;2022-11-20T06:25:39;0.50;99.90
25332;DHT22;13284;52.748;13.452;2022-11-20T06:28:05;0.40;99.90
25332;DHT22;13284;52.748;13.452;2022-11-20T06:30:31;0.40;99.90
25332;DHT22;13284;52.748;13.452;2022-11-20T06:32:56;0.40;99.90
25332;DHT22;13284;52.748;13.452;2022-11-20T06:35:28;0.50;99.90
25332;DHT22;13284;52.748;13.452;2022-11-20T06:37:53;0.40;99.90
25332;DHT22;13284;52.748;13.452;2022-11-20T06:40:20;0.40;99.90
25332;DHT22;13284;52.748;13.452;2022-11-20T06:42:46;0.40;99.90
25332;DHT22;13284;52.748;13.452;2022-11-20T06:45:11;0.40;99.90
25332;DHT22;13284;52.748;13.452;2022-11-20T06:47:37;0.40;99.90
25332;DHT22;13284;52.748;13.452;2022-11-20T06:50:02;0.40;99.90
25332;DHT22;13284;52.748;13.452;2022-11-20T06:52:28;0.40;99.90
25332;DHT22;13284;52.748;13.452;2022-11-20T06:54:53;0.40;99.90
25332;DHT22;13284;52.748;13.452;2022-11-20T06:57:19;0.40;99.90
25332;DHT22;13284;52.748;13.452;2022-11-20T06:59:44;0.40;99.90
25332;DHT22;13284;52.748;13.452;2022-11-20T07:02:11;0.40;99.90
25332;DHT22;13284;52.748;13.452;2022-11-20T07:04:37;0.40;99.90
25332;DHT22;13284;52.748;13.452;2022-11-20T07:07:02;0.40;99.90
25332;DHT22;13284;52.748;13.452;2022-11-20T07:09:31;0.50;99.90
25332;DHT22;13284;52.748;13.452;2022-11-20T07:11:57;0.50;99.90
25332;DHT22;13284;52.748;13.452;2022-11-20T07:14:23;0.50;99.90
25332;DHT22;13284;52.748;13.452;2022-11-20T07:16:48;0.40;99.90
25332;DHT22;13284;52.748;13.452;2022-11-20T07:19:14;0.50;99.90
25332;DHT22;13284;52.748;13.452;2022-11-20T07:21:40;0.50;99.90
25332;DHT22;13284;52.748;13.452;2022-11-20T07:24:05;0.50;99.90
25332;DHT22;13284;52.748;13.452;2022-11-20T07:26:31;0.50;99.90
25332;DHT22;13284;52.748;13.452;2022-11-20T07:28:56;0.50;99.90
25332;DHT22;13284;52.748;13.452;2022-11-20T07:31:22;0.40;99.90
25332;DHT22;13284;52.748;13.452;2022-11-20T07:33:47;0.40;99.90
25332;DHT22;13284;52.748;13.452;2022-11-20T07:36:13;0.40;99.90
25332;DHT22;13284;52.748;13.452;2022-11-20T07:38:38;0.50;99.90
25332;DHT22;13284;52.748;13.452;2022-11-20T07:41:04;0.50;99.90
25332;DHT22;13284;52.748;13.452;2022-11-20T07:43:30;0.50;99.90
25332;DHT22;13284;52.748;13.452;2022-11-20T07:45:56;0.60;99.90
25332;DHT22;13284;52.748;13.452;2022-11-20T07:48:23;0.50;99.90
25332;DHT22;13284;52.748;13.452;2022-11-20T07:50:48;0.50;99.90
25332;DHT22;13284;52.748;13.452;2022-11-20T07:53:14;0.50;99.90
25332;DHT22;13284;52.748;13.452;2022-11-20T07:55:46;0.50;99.90
25332;DHT22;13284;52.748;13.452;2022-11-20T07:58:11;0.60;99.90
25332;DHT22;13284;52.748;13.452;2022-11-20T08:00:40;0.60;99.90
25332;DHT22;13284;52.748;13.452;2022-11-20T08:03:06;0.60;99.90
25332;DHT22;13284;52.748;13.452;2022-11-20T08:05:32;0.70;99.90
25332;DHT22;13284;52.748;13.452;2022-11-20T08:07:58;0.70;99.90
25332;DHT22;13284;52.748;13.452;2022-11-20T08:10:23;0.70;99.90
25332;DHT22;13284;52.748;13.452;2022-11-20T08:12:51;0.70;99.90
25332;DHT22;13284;52.748;13.452;2022-11-20T08:15:37;0.70;99.90
25332;DHT22;13284;52.748;13.452;2022-11-20T08:18:04;0.70;99.90
25332;DHT22;13284;52.748;13.452;2022-11-20T08:20:31;0.70;99.90
25332;DHT22;13284;52.748;13.452;2022-11-20T08:23:04;0.70;99.90
25332;DHT22;13284;52.748;13.452;2022-11-20T08:25:34;0.80;99.90
25332;DHT22;13284;52.748;13.452;2022-11-20T08:28:02;0.90;99.90
25332;DHT22;13284;52.748;13.452;2022-11-20T08:30:28;0.90;99.90
25332;DHT22;13284;52.748;13.452;2022-11-20T08:32:54;0.90;99.90
25332;DHT22;13284;52.748;13.452;2022-11-20T08:35:21;1.00;99.90
25332;DHT22;13284;52.748;13.452;2022-11-20T08:37:47;1.00;99.90
25332;DHT22;13284;52.748;13.452;2022-11-20T08:40:13;1.00;99.90
25332;DHT22;13284;52.748;13.452;2022-11-20T08:42:46;1.00;99.90
25332;DHT22;13284;52.748;13.452;2022-11-20T08:45:12;1.00;99.90
25332;DHT22;13284;52.748;13.452;2022-11-20T08:47:38;1.00;99.90
25332;DHT22;13284;52.748;13.452;2022-11-20T08:50:04;1.00;99.90
25332;DHT22;13284;52.748;13.452;2022-11-20T08:52:29;1.00;99.90
25332;DHT22;13284;52.748;13.452;2022-11-20T08:54:54;1.00;99.90
25332;DHT22;13284;52.748;13.452;2022-11-20T08:57:20;0.90;99.90
25332;DHT22;13284;52.748;13.452;2022-11-20T08:59:45;0.90;99.90
25332;DHT22;13284;52.748;13.452;2022-11-20T09:02:11;1.00;99.90
25332;DHT22;13284;52.748;13.452;2022-11-20T09:04:37;1.00;99.90
25332;DHT22;13284;52.748;13.452;2022-11-20T09:07:02;1.00;99.90
25332;DHT22;13284;52.748;13.452;2022-11-20T09:09:28;1.10;99.90
25332;DHT22;13284;52.748;13.452;2022-11-20T09:11:53;1.10;99.90
25332;DHT22;13284;52.748;13.452;2022-11-20T09:14:19;1.10;99.90
25332;DHT22;13284;52.748;13.452;2022-11-20T09:16:45;1.20;99.90
25332;DHT22;13284;52.748;13.452;2022-11-20T09:19:11;1.10;99.90
25332;DHT22;13284;52.748;13.452;2022-11-20T09:21:37;1.10;99.90
25332;DHT22;13284;52.748;13.452;2022-11-20T09:24:03;1.10;99.90
25332;DHT22;13284;52.748;13.452;2022-11-20T09:26:29;1.20;99.90
25332;DHT22;13284;52.748;13.452;2022-11-20T09:28:55;1.20;99.90
25332;DHT22;13284;52.748;13.452;2022-11-20T09:31:24;1.20;99.90
25332;DHT22;13284;52.748;13.452;2022-11-20T09:33:51;1.20;99.90
25332;DHT22;13284;52.748;13.452;2022-11-20T09:36:17;1.20;99.90
25332;DHT22;13284;52.748;13.452;2022-11-20T09:38:44;1.20;99.90
25332;DHT22;13284;52.748;13.452;2022-11-20T09:44:07;1.30;99.90
25332;DHT22;13284;52.748;13.452;2022-11-20T09:46:46;1.30;99.90
25332;DHT22;13284;52.748;13.452;2022-11-20T09:49:50;1.30;99.90
25332;DHT22;13284;52.748;13.452;2022-11-20T09:55:08;1.40;99.90
25332;DHT22;13284;52.748;13.452;2022-11-20T09:57:41;1.30;99.90
25332;DHT22;13284;52.748;13.452;2022-11-20T10:00:11;1.30;99.90
25332;DHT22;13284;52.748;13.452;2022-11-20T10:07:48;1.30;99.90
25332;DHT22;13284;52.748;13.452;2022-11-20T10:10:45;1.40;99.90
25332;DHT22;13284;52.748;13.452;2022-11-20T10:15:59;1.30;99.90
25332;DHT22;13284;52.748;13.452;2022-11-20T10:18:43;1.30;99.90
25332;DHT22;13284;52.748;13.452;2022-11-20T10:26:28;1.40;99.90
25332;DHT22;13284;52.748;13.452;2022-11-20T10:29:11;1.40;99.90
25332;DHT22;13284;52.748;13.452;2022-11-20T10:31:46;1.50;99.90
25332;DHT22;13284;52.748;13.452;2022-11-20T10:34:20;1.50;99.90
25332;DHT22;13284;52.748;13.452;2022-11-20T10:36:54;1.50;99.90
25332;DHT22;13284;52.748;13.452;2022-11-20T10:39:32;1.50;99.90
25332;DHT22;13284;52.748;13.452;2022-11-20T10:42:00;1.50;99.90
25332;DHT22;13284;52.748;13.452;2022-11-20T10:44:28;1.50;99.90
25332;DHT22;13284;52.748;13.452;2022-11-20T10:47:17;1.40;99.90
25332;DHT22;13284;52.748;13.452;2022-11-20T10:49:45;1.30;99.90
25332;DHT22;13284;52.748;13.452;2022-11-20T10:55:18;1.30;99.90
25332;DHT22;13284;52.748;13.452;2022-11-20T10:58:02;1.30;99.90
25332;DHT22;13284;52.748;13.452;2022-11-20T11:00:31;1.30;99.90
25332;DHT22;13284;52.748;13.452;2022-11-20T11:02:57;1.30;99.90
25332;DHT22;13284;52.748;13.452;2022-11-20T11:08:35;1.30;99.90
25332;DHT22;13284;52.748;13.452;2022-11-20T11:11:18;1.20;99.90
25332;DHT22;13284;52.748;13.452;2022-11-20T11:13:45;1.20;99.90
25332;DHT22;13284;52.748;13.452;2022-11-20T11:16:23;1.30;99.90
25332;DHT22;13284;52.748;13.452;2022-11-20T11:18:49;1.40;99.90
25332;DHT22;13284;52.748;13.452;2022-11-20T11:21:24;1.30;99.90
25332;DHT22;13284;52.748;13.452;2022-11-20T11:24:02;1.20;99.90
25332;DHT22;13284;52.748;13.452;2022-11-20T11:26:28;1.20;99.90
25332;DHT22;13284;52.748;13.452;2022-11-20T11:28:58;1.20;99.90
25332;DHT22;13284;52.748;13.452;2022-11-20T11:31:25;1.20;99.90
25332;DHT22;13284;52.748;13.452;2022-11-20T11:33:51;1.30;99.90
25332;DHT22;13284;52.748;13.452;2022-11-20T11:36:20;1.20;99.90
25332;DHT22;13284;52.748;13.452;2022-11-20T11:38:51;1.20;99.90
25332;DHT22;13284;52.748;13.452;2022-11-20T11:41:21;1.10;99.90
25332;DHT22;13284;52.748;13.452;2022-11-20T11:43:56;1.00;99.90
25332;DHT22;13284;52.748;13.452;2022-11-20T11:46:51;1.00;99.90
25332;DHT22;13284;52.748;13.452;2022-11-20T11:49:19;1.00;99.90
25332;DHT22;13284;52.748;13.452;2022-11-20T11:52:18;0.90;99.90
25332;DHT22;13284;52.748;13.452;2022-11-20T11:55:01;0.90;99.90
25332;DHT22;13284;52.748;13.452;2022-11-20T11:58:04;0.90;99.90
25332;DHT22;13284;52.748;13.452;2022-11-20T12:00:21;0.90;99.90
25332;DHT22;13284;52.748;13.452;2022-11-20T12:02:57;1.00;99.90
25332;DHT22;13284;52.748;13.452;2022-11-20T12:05:34;1.00;99.90
25332;DHT22;13284;52.748;13.452;2022-11-20T12:08:25;1.00;99.90
25332;DHT22;13284;52.748;13.452;2022-11-20T12:14:22;1.10;99.90
25332;DHT22;13284;52.748;13.452;2022-11-20T12:16:50;1.10;99.90
25332;DHT22;13284;52.748;13.452;2022-11-20T12:19:16;1.30;99.90
25332;DHT22;13284;52.748;13.452;2022-11-20T12:24:44;1.30;99.90
25332;DHT22;13284;52.748;13.452;2022-11-20T12:37:50;1.30;99.90
25332;DHT22;13284;52.748;13.452;2022-11-20T12:43:22;1.20;99.90
25332;DHT22;13284;52.748;13.452;2022-11-20T12:46:48;1.20;99.90
25332;DHT22;13284;52.748;13.452;2022-11-20T12:49:37;1.20;99.90
25332;DHT22;13284;52.748;13.452;2022-11-20T12:52:26;1.20;99.90
25332;DHT22;13284;52.748;13.452;2022-11-20T12:57:41;1.30;99.90
25332;DHT22;13284;52.748;13.452;2022-11-20T13:00:12;1.30;99.90
25332;DHT22;13284;52.748;13.452;2022-11-20T13:05:59;1.30;99.90
25332;DHT22;13284;52.748;13.452;2022-11-20T13:08:32;1.30;99.90
25332;DHT22;13284;52.748;13.452;2022-11-20T13:11:01;1.30;99.90
25332;DHT22;13284;52.748;13.452;2022-11-20T13:19:15;1.40;99.90
25332;DHT22;13284;52.748;13.452;2022-11-20T13:21:43;1.30;99.90
25332;DHT22;13284;52.748;13.452;2022-11-20T13:24:22;1.30;99.90
25332;DHT22;13284;52.748;13.452;2022-11-20T13:29:34;1.40;99.90
25332;DHT22;13284;52.748;13.452;2022-11-20T13:32:04;1.30;99.90
25332;DHT22;13284;52.748;13.452;2022-11-20T13:34:30;1.40;99.90
25332;DHT22;13284;52.748;13.452;2022-11-20T13:36:57;1.40;99.90
25332;DHT22;13284;52.748;13.452;2022-11-20T13:39:28;1.40;99.90
25332;DHT22;13284;52.748;13.452;2022-11-20T13:42:02;1.40;99.90
25332;DHT22;13284;52.748;13.452;2022-11-20T13:44:48;1.40;99.90
25332;DHT22;13284;52.748;13.452;2022-11-20T13:47:36;1.40;99.90
25332;DHT22;13284;52.748;13.452;2022-11-20T13:50:04;1.40;99.90
25332;DHT22;13284;52.748;13.452;2022-11-20T13:55:30;1.30;99.90
25332;DHT22;13284;52.748;13.452;2022-11-20T13:58:23;1.30;99.90
25332;DHT22;13284;52.748;13.452;2022-11-20T14:01:00;1.30;99.90
25332;DHT22;13284;52.748;13.452;2022-11-20T14:03:29;1.30;99.90
25332;DHT22;13284;52.748;13.452;2022-11-20T14:05:59;1.30;99.90
25332;DHT22;13284;52.748;13.452;2022-11-20T14:08:37;1.20;99.90
25332;DHT22;13284;52.748;13.452;2022-11-20T14:11:16;1.30;99.90
25332;DHT22;13284;52.748;13.452;2022-11-20T14:16:42;1.30;99.90
25332;DHT22;13284;52.748;13.452;2022-11-20T14:21:47;1.20;99.90
25332;DHT22;13284;52.748;13.452;2022-11-20T14:24:18;1.20;99.90
25332;DHT22;13284;52.748;13.452;2022-11-20T14:26:45;1.10;99.90
25332;DHT22;13284;52.748;13.452;2022-11-20T14:29:16;1.10;99.90
25332;DHT22;13284;52.748;13.452;2022-11-20T14:31:43;1.20;99.90
25332;DHT22;13284;52.748;13.452;2022-11-20T14:34:18;1.20;99.90
25332;DHT22;13284;52.748;13.452;2022-11-20T14:36:44;1.20;99.90
25332;DHT22;13284;52.748;13.452;2022-11-20T14:39:27;1.10;99.90
25332;DHT22;13284;52.748;13.452;2022-11-20T14:41:54;1.10;99.90
25332;DHT22;13284;52.748;13.452;2022-11-20T14:44:25;1.10;99.90
25332;DHT22;13284;52.748;13.452;2022-11-20T14:46:52;1.10;99.90
25332;DHT22;13284;52.748;13.452;2022-11-20T14:49:18;1.10;99.90
25332;DHT22;13284;52.748;13.452;2022-11-20T14:51:43;1.10;99.90
25332;DHT22;13284;52.748;13.452;2022-11-20T14:54:14;1.10;99.90
25332;DHT22;13284;52.748;13.452;2022-11-20T14:56:40;1.00;99.90
25332;DHT22;13284;52.748;13.452;2022-11-20T14:59:06;1.00;99.90
25332;DHT22;13284;52.748;13.452;2022-11-20T15:01:33;1.00;99.90
25332;DHT22;13284;52.748;13.452;2022-11-20T15:04:25;1.00;99.90
25332;DHT22;13284;52.748;13.452;2022-11-20T15:06:54;1.00;99.90
25332;DHT22;13284;52.748;13.452;2022-11-20T15:09:20;1.00;99.90
25332;DHT22;13284;52.748;13.452;2022-11-20T15:12:01;1.00;99.90
25332;DHT22;13284;52.748;13.452;2022-11-20T15:14:28;1.00;99.90
25332;DHT22;13284;52.748;13.452;2022-11-20T15:16:55;1.00;99.90
25332;DHT22;13284;52.748;13.452;2022-11-20T15:19:22;1.00;99.90
25332;DHT22;13284;52.748;13.452;2022-11-20T15:21:48;1.00;99.90
25332;DHT22;13284;52.748;13.452;2022-11-20T15:24:14;1.00;99.90
25332;DHT22;13284;52.748;13.452;2022-11-20T15:26:40;1.00;99.90
25332;DHT22;13284;52.748;13.452;2022-11-20T15:29:14;1.00;99.90
25332;DHT22;13284;52.748;13.452;2022-11-20T15:31:39;1.00;99.90
25332;DHT22;13284;52.748;13.452;2022-11-20T15:34:11;1.00;99.90
25332;DHT22;13284;52.748;13.452;2022-11-20T15:36:38;1.00;99.90
25332;DHT22;13284;52.748;13.452;2022-11-20T15:39:04;1.00;99.90
25332;DHT22;13284;52.748;13.452;2022-11-20T15:41:32;1.00;99.90
25332;DHT22;13284;52.748;13.452;2022-11-20T15:43:58;1.00;99.90
25332;DHT22;13284;52.748;13.452;2022-11-20T15:46:27;1.00;99.90
25332;DHT22;13284;52.748;13.452;2022-11-20T15:48:57;1.00;99.90
25332;DHT22;13284;52.748;13.452;2022-11-20T15:51:35;1.00;99.90
25332;DHT22;13284;52.748;13.452;2022-11-20T15:54:05;1.00;99.90
25332;DHT22;13284;52.748;13.452;2022-11-20T15:56:34;1.00;99.90
25332;DHT22;13284;52.748;13.452;2022-11-20T15:58:59;1.00;99.90
25332;DHT22;13284;52.748;13.452;2022-11-20T16:01:25;1.00;99.90
25332;DHT22;13284;52.748;13.452;2022-11-20T16:03:50;0.90;99.90
25332;DHT22;13284;52.748;13.452;2022-11-20T16:06:16;1.00;99.90
25332;DHT22;13284;52.748;13.452;2022-11-20T16:08:41;0.90;99.90
25332;DHT22;13284;52.748;13.452;2022-11-20T16:11:11;0.90;99.90
25332;DHT22;13284;52.748;13.452;2022-11-20T16:13:37;0.90;99.90
25332;DHT22;13284;52.748;13.452;2022-11-20T16:16:37;0.90;99.90
25332;DHT22;13284;52.748;13.452;2022-11-20T16:19:04;0.90;99.90
25332;DHT22;13284;52.748;13.452;2022-11-20T16:21:30;0.90;99.90
25332;DHT22;13284;52.748;13.452;2022-11-20T16:24:04;1.00;99.90
25332;DHT22;13284;52.748;13.452;2022-11-20T16:26:30;0.90;99.90
25332;DHT22;13284;52.748;13.452;2022-11-20T16:28:57;1.00;99.90
25332;DHT22;13284;52.748;13.452;2022-11-20T16:31:23;0.90;99.90
25332;DHT22;13284;52.748;13.452;2022-11-20T16:33:50;1.00;99.90
25332;DHT22;13284;52.748;13.452;2022-11-20T16:36:16;1.00;99.90
25332;DHT22;13284;52.748;13.452;2022-11-20T16:38:42;1.00;99.90
25332;DHT22;13284;52.748;13.452;2022-11-20T16:41:09;1.00;99.90
25332;DHT22;13284;52.748;13.452;2022-11-20T16:43:53;1.00;99.90
25332;DHT22;13284;52.748;13.452;2022-11-20T16:46:21;0.90;99.90
25332;DHT22;13284;52.748;13.452;2022-11-20T16:48:53;0.90;99.90
25332;DHT22;13284;52.748;13.452;2022-11-20T16:51:19;1.00;99.90